Time;durP1;ratioP1;P1;durP2;ratioP2;P2;SDS_P1;SDS_P2;PMS_P1;PMS_P2;Temp;Humidity;BMP_temperature;BMP_pressure;BME280_temperature;BME280_humidity;BME280_pressure;Samples;Min_cycle;Max_cycle;Signal;HPM_P1;HPM_P2
2022/05/07 00:00:45;;;;;;;0.10;0.10;;;;;;;;;;5059703;28;20082;-92
2022/05/07 00:03:11;;;;;;;0.13;0.13;;;;;;;;;;5059229;28;20395;-92
2022/05/07 00:05:38;;;;;;;0.00;0.00;;;;;;;;;;5076163;28;20055;-93
2022/05/07 00:08:05;;;;;;;0.10;0.10;;;;;;;;;;5059838;28;20043;-93
2022/05/07 00:10:31;;;;;;;0.10;0.10;;;;;;;;;;5059549;28;20540;-93
2022/05/07 00:12:57;;;;;;;0.10;0.10;;;;;;;;;;5076432;28;20032;-91
2022/05/07 00:15:23;;;;;;;0.10;0.10;;;;;;;;;;5059392;28;20040;-92
2022/05/07 00:18:03;;;;;;;0.20;0.20;;;;;;;;;;5059284;28;20040;-92
2022/05/07 00:20:29;;;;;;;0.10;0.10;;;;;;;;;;5061075;28;20509;-91
2022/05/07 00:22:57;;;;;;;0.10;0.10;;;;;;;;;;5059323;28;20479;-92
2022/05/07 00:25:23;;;;;;;0.10;0.10;;;;;;;;;;5059263;28;20039;-92
2022/05/07 00:27:49;;;;;;;0.10;0.10;;;;;;;;;;5058877;28;20040;-91
2022/05/07 00:30:15;;;;;;;0.10;0.10;;;;;;;;;;5075213;28;20415;-92
2022/05/07 00:32:41;;;;;;;0.10;0.10;;;;;;;;;;5058858;28;20111;-93
2022/05/07 00:35:09;;;;;;;0.20;0.20;;;;;;;;;;5058867;28;20052;-92
2022/05/07 00:37:35;;;;;;;0.10;0.10;;;;;;;;;;5058969;28;20044;-93
2022/05/07 00:40:01;;;;;;;0.10;0.10;;;;;;;;;;5058698;28;20088;-92
2022/05/07 00:42:28;;;;;;;0.10;0.10;;;;;;;;;;5058832;28;20040;-92
2022/05/07 00:44:54;;;;;;;0.10;0.10;;;;;;;;;;5059275;28;20119;-93
2022/05/07 00:47:31;;;;;;;0.20;0.20;;;;;;;;;;5058940;28;20121;-94
2022/05/07 00:51:33;;;;;;;0.10;0.10;;;;;;;;;;5059177;28;20079;-91
2022/05/07 00:52:44;;;;;;;0.22;0.22;;;;;;;;;;5077675;28;20122;-91
2022/05/07 00:55:11;;;;;;;0.10;0.10;;;;;;;;;;5060699;28;20093;-92
2022/05/07 00:57:37;;;;;;;0.10;0.10;;;;;;;;;;5079401;28;20090;-91
2022/05/07 01:00:04;;;;;;;0.13;0.10;;;;;;;;;;5062005;28;20043;-92
2022/05/07 01:02:30;;;;;;;0.10;0.10;;;;;;;;;;5090488;28;20063;-91
2022/05/07 01:04:56;;;;;;;0.20;0.20;;;;;;;;;;5079176;28;20073;-93
2022/05/07 01:07:22;;;;;;;0.10;0.10;;;;;;;;;;5074341;28;20036;-92
2022/05/07 01:09:48;;;;;;;0.10;0.10;;;;;;;;;;5061849;28;20101;-92
2022/05/07 01:12:14;;;;;;;0.10;0.10;;;;;;;;;;5066242;28;20050;-92
2022/05/07 01:14:40;;;;;;;0.10;0.10;;;;;;;;;;5077778;28;20047;-91
2022/05/07 01:17:07;;;;;;;0.10;0.10;;;;;;;;;;5071019;28;20048;-92
2022/05/07 01:19:33;;;;;;;0.10;0.10;;;;;;;;;;5058444;28;20381;-94
2022/05/07 01:21:59;;;;;;;0.10;0.10;;;;;;;;;;5058366;28;20456;-91
2022/05/07 01:24:25;;;;;;;0.10;0.10;;;;;;;;;;5058546;28;20430;-91
2022/05/07 01:26:51;;;;;;;0.10;0.10;;;;;;;;;;5075247;28;20039;-93
2022/05/07 01:29:17;;;;;;;0.15;0.15;;;;;;;;;;5058417;28;20491;-94
2022/05/07 01:31:43;;;;;;;0.10;0.10;;;;;;;;;;5058454;28;20044;-93
2022/05/07 01:34:09;;;;;;;0.10;0.10;;;;;;;;;;5058379;28;20487;-93
2022/05/07 01:36:35;;;;;;;0.10;0.10;;;;;;;;;;5075014;28;20082;-91
2022/05/07 01:39:01;;;;;;;0.10;0.10;;;;;;;;;;5058603;28;20526;-91
2022/05/07 01:41:27;;;;;;;0.10;0.10;;;;;;;;;;5060987;28;20036;-91
2022/05/07 01:43:53;;;;;;;0.10;0.10;;;;;;;;;;5062161;28;20036;-92
2022/05/07 01:49:04;;;;;;;0.10;0.10;;;;;;;;;;5081633;28;20057;-92
2022/05/07 01:51:34;;;;;;;0.10;0.10;;;;;;;;;;5078848;28;20052;-94
2022/05/07 01:54:00;;;;;;;0.10;0.10;;;;;;;;;;5061848;28;20035;-93
2022/05/07 01:56:26;;;;;;;0.10;0.10;;;;;;;;;;5078803;28;20395;-92
2022/05/07 01:58:52;;;;;;;0.10;0.10;;;;;;;;;;5062298;28;20040;-93
2022/05/07 02:01:20;;;;;;;0.10;0.10;;;;;;;;;;5061757;28;20085;-92
2022/05/07 02:03:46;;;;;;;0.85;0.43;;;;;;;;;;5061735;28;20047;-91
2022/05/07 02:06:12;;;;;;;0.10;0.10;;;;;;;;;;5062144;28;20052;-91
2022/05/07 02:08:38;;;;;;;0.10;0.10;;;;;;;;;;5078629;28;20040;-93
2022/05/07 02:11:04;;;;;;;0.20;0.20;;;;;;;;;;5061821;28;20085;-92
2022/05/07 02:13:30;;;;;;;0.10;0.10;;;;;;;;;;5062063;28;20208;-94
2022/05/07 02:15:56;;;;;;;0.30;0.30;;;;;;;;;;5061774;28;20437;-92
2022/05/07 02:18:22;;;;;;;0.10;0.10;;;;;;;;;;5061712;28;20048;-94
2022/05/07 02:20:49;;;;;;;0.45;0.20;;;;;;;;;;5061775;28;20052;-94
2022/05/07 02:23:16;;;;;;;0.22;0.22;;;;;;;;;;5061358;28;20051;-92
2022/05/07 02:25:42;;;;;;;0.08;0.08;;;;;;;;;;5061613;28;20101;-92
2022/05/07 02:28:08;;;;;;;0.10;0.10;;;;;;;;;;5061311;28;20047;-91
2022/05/07 02:30:34;;;;;;;0.17;0.17;;;;;;;;;;5061637;28;20039;-93
2022/05/07 02:33:00;;;;;;;0.10;0.10;;;;;;;;;;5061637;28;20047;-92
2022/05/07 02:35:26;;;;;;;0.10;0.10;;;;;;;;;;5061406;28;20040;-93
2022/05/07 02:37:53;;;;;;;0.10;0.10;;;;;;;;;;5061112;28;20475;-92
2022/05/07 02:40:19;;;;;;;0.10;0.10;;;;;;;;;;5061419;28;20373;-92
2022/05/07 02:42:45;;;;;;;0.10;0.10;;;;;;;;;;5061247;28;20044;-92
2022/05/07 02:45:12;;;;;;;0.20;0.20;;;;;;;;;;5077682;28;20102;-92
2022/05/07 02:47:39;;;;;;;0.10;0.10;;;;;;;;;;5061041;28;20051;-92
2022/05/07 02:50:06;;;;;;;0.10;0.10;;;;;;;;;;5077423;28;20082;-92
2022/05/07 02:52:33;;;;;;;0.10;0.10;;;;;;;;;;5077338;28;20123;-93
2022/05/07 02:55:06;;;;;;;0.10;0.10;;;;;;;;;;5060933;28;20036;-94
2022/05/07 02:57:32;;;;;;;0.10;0.10;;;;;;;;;;5061036;28;20044;-92
2022/05/07 02:59:58;;;;;;;0.10;0.10;;;;;;;;;;5060646;28;20100;-94
2022/05/07 03:02:24;;;;;;;0.10;0.10;;;;;;;;;;5077234;28;20506;-92
2022/05/07 03:04:50;;;;;;;0.10;0.10;;;;;;;;;;5060937;28;20044;-92
2022/05/07 03:07:16;;;;;;;0.10;0.10;;;;;;;;;;5094205;28;20185;-92
2022/05/07 03:09:42;;;;;;;0.20;0.20;;;;;;;;;;5077187;28;20036;-91
2022/05/07 03:12:11;;;;;;;0.10;0.10;;;;;;;;;;5060283;28;20099;-91
2022/05/07 03:14:37;;;;;;;0.10;0.10;;;;;;;;;;5060597;28;20059;-91
2022/05/07 03:17:03;;;;;;;0.10;0.10;;;;;;;;;;5060705;28;20044;-91
2022/05/07 03:19:29;;;;;;;0.10;0.10;;;;;;;;;;5060394;28;20036;-91
2022/05/07 03:21:55;;;;;;;0.10;0.10;;;;;;;;;;5060397;28;20089;-93
2022/05/07 03:24:21;;;;;;;0.10;0.10;;;;;;;;;;5060343;28;20040;-93
2022/05/07 03:26:47;;;;;;;0.20;0.20;;;;;;;;;;5060505;28;20128;-93
2022/05/07 03:29:13;;;;;;;0.17;0.17;;;;;;;;;;5060288;28;20501;-92
2022/05/07 03:31:39;;;;;;;0.10;0.10;;;;;;;;;;5060357;28;20040;-93
2022/05/07 03:34:06;;;;;;;0.10;0.10;;;;;;;;;;5060244;28;20046;-93
2022/05/07 03:36:32;;;;;;;0.10;0.10;;;;;;;;;;5060247;28;20093;-92
2022/05/07 03:38:58;;;;;;;0.10;0.10;;;;;;;;;;5060066;28;20237;-92
2022/05/07 03:41:24;;;;;;;0.10;0.10;;;;;;;;;;5059798;28;20372;-93
2022/05/07 03:43:50;;;;;;;0.10;0.10;;;;;;;;;;5059931;28;20127;-93
2022/05/07 03:46:16;;;;;;;0.10;0.10;;;;;;;;;;5060152;28;20252;-93
2022/05/07 03:48:42;;;;;;;0.10;0.10;;;;;;;;;;5076312;28;20035;-95
2022/05/07 03:51:09;;;;;;;0.10;0.10;;;;;;;;;;5059648;28;20032;-95
2022/05/07 03:53:36;;;;;;;0.10;0.10;;;;;;;;;;5077041;28;20048;-94
2022/05/07 03:56:03;;;;;;;0.15;0.15;;;;;;;;;;5059201;28;20047;-94
2022/05/07 03:58:29;;;;;;;0.10;0.10;;;;;;;;;;5059699;28;20039;-96
2022/05/07 04:00:55;;;;;;;0.10;0.10;;;;;;;;;;5059753;28;20403;-95
2022/05/07 04:03:21;;;;;;;0.10;0.10;;;;;;;;;;5058747;28;20062;-94
2022/05/07 04:05:47;;;;;;;0.10;0.10;;;;;;;;;;5059080;28;20055;-94
2022/05/07 04:08:13;;;;;;;0.10;0.10;;;;;;;;;;5076134;28;20048;-93
2022/05/07 04:10:40;;;;;;;0.10;0.10;;;;;;;;;;5059332;28;20036;-93
2022/05/07 04:13:06;;;;;;;0.10;0.10;;;;;;;;;;5059343;28;20100;-94
2022/05/07 04:15:33;;;;;;;0.10;0.10;;;;;;;;;;5059282;28;20128;-95
2022/05/07 04:17:59;;;;;;;0.10;0.10;;;;;;;;;;5075714;22;20098;-96
2022/05/07 04:20:26;;;;;;;0.10;0.10;;;;;;;;;;5035697;28;20143;-96
2022/05/07 04:22:52;;;;;;;0.10;0.10;;;;;;;;;;5032123;28;20041;-95
2022/05/07 04:25:21;;;;;;;0.10;0.10;;;;;;;;;;5016168;28;20064;-93
2022/05/07 04:27:47;;;;;;;0.10;0.10;;;;;;;;;;5000046;28;20466;-93
2022/05/07 04:30:13;;;;;;;0.10;0.10;;;;;;;;;;4999958;28;20037;-93
2022/05/07 04:32:39;;;;;;;0.10;0.10;;;;;;;;;;5016267;28;20044;-92
2022/05/07 04:35:06;;;;;;;0.10;0.10;;;;;;;;;;5016070;28;20053;-92
2022/05/07 04:37:32;;;;;;;0.10;0.10;;;;;;;;;;5015646;28;20088;-91
2022/05/07 04:39:58;;;;;;;0.10;0.10;;;;;;;;;;4999525;28;20057;-92
2022/05/07 04:42:24;;;;;;;0.10;0.10;;;;;;;;;;4999395;28;20040;-92
2022/05/07 04:44:51;;;;;;;0.30;0.30;;;;;;;;;;4999495;28;20092;-93
2022/05/07 04:47:17;;;;;;;0.25;0.25;;;;;;;;;;5015774;28;20405;-92
2022/05/07 04:49:43;;;;;;;0.10;0.10;;;;;;;;;;4999607;28;20037;-93
2022/05/07 04:52:10;;;;;;;0.10;0.10;;;;;;;;;;4999552;28;20492;-92
2022/05/07 04:54:36;;;;;;;0.10;0.10;;;;;;;;;;4999152;28;20045;-93
2022/05/07 04:57:02;;;;;;;0.10;0.10;;;;;;;;;;4999177;28;20478;-92
2022/05/07 04:59:28;;;;;;;0.10;0.10;;;;;;;;;;4999436;28;20049;-92
2022/05/07 05:01:55;;;;;;;0.10;0.10;;;;;;;;;;4999654;28;20041;-93
2022/05/07 05:04:22;;;;;;;0.10;0.10;;;;;;;;;;4998938;28;20052;-92
2022/05/07 05:06:48;;;;;;;0.10;0.10;;;;;;;;;;5015612;28;20083;-92
2022/05/07 05:09:14;;;;;;;0.10;0.10;;;;;;;;;;5015938;28;20037;-91
2022/05/07 05:11:40;;;;;;;0.15;0.15;;;;;;;;;;4998965;28;20477;-92
2022/05/07 05:15:01;;;;;;;0.10;0.10;;;;;;;;;;5016746;28;20068;-92
2022/05/07 05:16:52;;;;;;;0.20;0.20;;;;;;;;;;5017559;28;20064;-91
2022/05/07 05:19:19;;;;;;;0.10;0.10;;;;;;;;;;4999286;28;20468;-92
2022/05/07 05:21:45;;;;;;;0.20;0.20;;;;;;;;;;5015742;28;20080;-91
2022/05/07 05:24:11;;;;;;;0.10;0.10;;;;;;;;;;5002429;28;20484;-90
2022/05/07 05:26:37;;;;;;;0.20;0.20;;;;;;;;;;5018136;28;20097;-90
2022/05/07 05:29:03;;;;;;;0.10;0.10;;;;;;;;;;5018687;28;20064;-90
2022/05/07 05:31:30;;;;;;;0.10;0.10;;;;;;;;;;5004209;28;20034;-91
2022/05/07 05:33:56;;;;;;;0.10;0.10;;;;;;;;;;4999309;28;20052;-89
2022/05/07 05:36:24;;;;;;;0.20;0.20;;;;;;;;;;5031685;28;20037;-91
2022/05/07 05:38:49;;;;;;;0.10;0.10;;;;;;;;;;5033676;28;20056;-89
2022/05/07 05:41:15;;;;;;;0.10;0.10;;;;;;;;;;5005655;28;20038;-91
2022/05/07 05:43:41;;;;;;;0.10;0.10;;;;;;;;;;4998319;28;20081;-91
2022/05/07 05:46:07;;;;;;;0.30;0.30;;;;;;;;;;5016666;28;20037;-93
2022/05/07 05:48:33;;;;;;;0.28;0.20;;;;;;;;;;4997550;28;20120;-92
2022/05/07 05:51:00;;;;;;;0.20;0.20;;;;;;;;;;5014903;28;20038;-92
2022/05/07 05:53:26;;;;;;;0.10;0.10;;;;;;;;;;5031206;28;20155;-92
2022/05/07 05:55:52;;;;;;;0.10;0.10;;;;;;;;;;5015189;28;20141;-92
2022/05/07 05:58:18;;;;;;;0.10;0.10;;;;;;;;;;5014734;28;20040;-90
2022/05/07 06:00:44;;;;;;;0.85;0.75;;;;;;;;;;5014766;28;20485;-90
2022/05/07 06:03:10;;;;;;;0.10;0.10;;;;;;;;;;5015515;28;20049;-94
2022/05/07 06:05:36;;;;;;;0.10;0.10;;;;;;;;;;5015116;28;20060;-93
2022/05/07 06:08:02;;;;;;;0.10;0.10;;;;;;;;;;5015629;28;20037;-93
2022/05/07 06:10:28;;;;;;;0.10;0.10;;;;;;;;;;5015690;28;20492;-93
2022/05/07 06:12:54;;;;;;;0.10;0.10;;;;;;;;;;5019362;28;20081;-93
2022/05/07 06:15:20;;;;;;;0.10;0.10;;;;;;;;;;5015031;28;20052;-94
2022/05/07 06:17:46;;;;;;;0.10;0.10;;;;;;;;;;5014957;28;20073;-93
2022/05/07 06:20:12;;;;;;;0.10;0.10;;;;;;;;;;5014974;28;20077;-94
2022/05/07 06:22:38;;;;;;;0.10;0.10;;;;;;;;;;5014941;28;20049;-93
2022/05/07 06:27:48;;;;;;;0.10;0.10;;;;;;;;;;5018748;28;20061;-93
2022/05/07 06:30:14;;;;;;;0.10;0.10;;;;;;;;;;5018558;28;20029;-94
2022/05/07 06:32:41;;;;;;;0.20;0.20;;;;;;;;;;5018603;28;20040;-93
2022/05/07 06:35:07;;;;;;;0.10;0.10;;;;;;;;;;5018205;28;20047;-93
2022/05/07 06:37:34;;;;;;;0.10;0.10;;;;;;;;;;5018391;28;20157;-95
2022/05/07 06:40:00;;;;;;;0.10;0.10;;;;;;;;;;5018209;28;20068;-94
2022/05/07 06:42:26;;;;;;;0.10;0.10;;;;;;;;;;5017953;28;20089;-93
2022/05/07 06:44:52;;;;;;;0.30;0.30;;;;;;;;;;5018280;28;20077;-92
2022/05/07 06:47:18;;;;;;;0.10;0.10;;;;;;;;;;5018398;28;20505;-93
2022/05/07 06:49:44;;;;;;;0.10;0.10;;;;;;;;;;5018079;28;20049;-93
2022/05/07 06:52:10;;;;;;;0.10;0.10;;;;;;;;;;5017978;28;20040;-94
2022/05/07 06:54:36;;;;;;;0.10;0.10;;;;;;;;;;5017735;28;20128;-93
2022/05/07 06:57:03;;;;;;;0.10;0.10;;;;;;;;;;5017845;28;20073;-93
2022/05/07 06:59:32;;;;;;;0.10;0.10;;;;;;;;;;5020754;28;20068;-93
2022/05/07 07:01:58;;;;;;;0.10;0.10;;;;;;;;;;5017953;28;20041;-93
2022/05/07 07:04:24;;;;;;;0.20;0.20;;;;;;;;;;5017701;28;20048;-94
2022/05/07 07:06:51;;;;;;;0.20;0.20;;;;;;;;;;5017937;28;20493;-92
2022/05/07 07:09:17;;;;;;;0.10;0.10;;;;;;;;;;5018138;28;20057;-93
2022/05/07 07:11:43;;;;;;;0.15;0.15;;;;;;;;;;5017544;28;20037;-93
2022/05/07 07:14:09;;;;;;;0.10;0.10;;;;;;;;;;5017851;28;20141;-93
2022/05/07 07:16:35;;;;;;;0.10;0.10;;;;;;;;;;5017649;28;20445;-94
2022/05/07 07:19:01;;;;;;;0.20;0.20;;;;;;;;;;5017779;28;20449;-94
2022/05/07 07:21:27;;;;;;;0.20;0.20;;;;;;;;;;5017257;28;20049;-93
2022/05/07 07:23:53;;;;;;;0.10;0.10;;;;;;;;;;5017290;28;20386;-93
2022/05/07 07:26:20;;;;;;;0.10;0.10;;;;;;;;;;5017740;28;20440;-93
2022/05/07 07:28:46;;;;;;;0.10;0.10;;;;;;;;;;5017213;28;20037;-94
2022/05/07 07:31:13;;;;;;;0.10;0.10;;;;;;;;;;5017493;28;20071;-93
2022/05/07 07:33:39;;;;;;;0.40;0.20;;;;;;;;;;5017201;28;20088;-94
2022/05/07 07:36:09;;;;;;;0.20;0.20;;;;;;;;;;5017536;28;20077;-93
2022/05/07 07:38:35;;;;;;;0.10;0.10;;;;;;;;;;5017175;28;20048;-93
2022/05/07 07:41:02;;;;;;;0.20;0.20;;;;;;;;;;5017177;28;20080;-94
2022/05/07 07:43:29;;;;;;;0.40;0.40;;;;;;;;;;5017268;28;20146;-94
2022/05/07 07:48:40;;;;;;;0.43;0.35;;;;;;;;;;5019613;28;20041;-94
2022/05/07 07:51:07;;;;;;;0.35;0.35;;;;;;;;;;5016683;28;20138;-94
2022/05/07 07:53:33;;;;;;;0.20;0.20;;;;;;;;;;5016606;28;20096;-94
2022/05/07 07:55:59;;;;;;;0.17;0.17;;;;;;;;;;5016917;28;20374;-93
2022/05/07 07:58:25;;;;;;;0.20;0.20;;;;;;;;;;5016807;28;20428;-93
2022/05/07 08:00:51;;;;;;;0.20;0.20;;;;;;;;;;5017148;28;20382;-93
2022/05/07 08:03:18;;;;;;;0.10;0.10;;;;;;;;;;5016413;28;20124;-93
2022/05/07 08:05:46;;;;;;;0.40;0.40;;;;;;;;;;5016773;28;20543;-93
2022/05/07 08:13:45;;;;;;;0.20;0.20;;;;;;;;;;5018728;28;20045;-93
2022/05/07 08:16:11;;;;;;;0.10;0.10;;;;;;;;;;5016435;28;20048;-94
2022/05/07 08:18:37;;;;;;;0.20;0.20;;;;;;;;;;5016250;28;20045;-93
2022/05/07 08:21:04;;;;;;;0.38;0.38;;;;;;;;;;5016721;28;20064;-93
2022/05/07 08:23:30;;;;;;;0.17;0.17;;;;;;;;;;5016290;28;20069;-92
2022/05/07 08:25:56;;;;;;;0.13;0.13;;;;;;;;;;5016124;28;20504;-93
2022/05/07 08:28:24;;;;;;;0.20;0.20;;;;;;;;;;5016374;28;20132;-93
2022/05/07 08:30:50;;;;;;;0.52;0.30;;;;;;;;;;5016413;28;20049;-93
2022/05/07 08:33:17;;;;;;;0.13;0.13;;;;;;;;;;5015872;28;20500;-94
2022/05/07 08:35:43;;;;;;;1.10;0.20;;;;;;;;;;5016102;28;20443;-92
2022/05/07 08:38:09;;;;;;;0.20;0.20;;;;;;;;;;5016045;28;20037;-94
2022/05/07 08:40:35;;;;;;;0.32;0.32;;;;;;;;;;5015998;28;20033;-93
2022/05/07 08:43:03;;;;;;;0.10;0.10;;;;;;;;;;5016016;28;20481;-92
2022/05/07 08:45:29;;;;;;;0.10;0.10;;;;;;;;;;5015490;28;20045;-93
2022/05/07 08:47:55;;;;;;;0.10;0.10;;;;;;;;;;5016065;28;20148;-93
2022/05/07 08:50:21;;;;;;;0.32;0.32;;;;;;;;;;5015705;28;20045;-92
2022/05/07 08:52:47;;;;;;;0.17;0.17;;;;;;;;;;5015621;28;20550;-93
2022/05/07 08:55:15;;;;;;;0.20;0.20;;;;;;;;;;5016135;28;20063;-93
2022/05/07 08:57:42;;;;;;;0.20;0.20;;;;;;;;;;5032391;28;20041;-93
2022/05/07 09:00:08;;;;;;;0.20;0.20;;;;;;;;;;5015831;28;20051;-92
2022/05/07 09:03:13;;;;;;;0.10;0.10;;;;;;;;;;5015856;28;20041;-92
2022/05/07 09:05:39;;;;;;;0.20;0.20;;;;;;;;;;5031098;28;20060;-92
2022/05/07 09:08:06;;;;;;;0.10;0.10;;;;;;;;;;5015723;28;20038;-93
2022/05/07 09:10:33;;;;;;;0.30;0.30;;;;;;;;;;5015646;28;20132;-93
2022/05/07 09:13:00;;;;;;;0.10;0.10;;;;;;;;;;5015342;28;20041;-93
2022/05/07 09:15:26;;;;;;;0.30;0.30;;;;;;;;;;5016078;28;20041;-93
2022/05/07 09:17:52;;;;;;;0.10;0.10;;;;;;;;;;5015777;28;20049;-93
2022/05/07 09:20:19;;;;;;;0.20;0.20;;;;;;;;;;5015500;28;20048;-93
2022/05/07 09:22:53;;;;;;;0.10;0.10;;;;;;;;;;5015483;28;20396;-93
2022/05/07 09:25:23;;;;;;;0.10;0.10;;;;;;;;;;5015406;28;20042;-92
2022/05/07 09:27:54;;;;;;;0.10;0.10;;;;;;;;;;5015405;28;20040;-92
2022/05/07 09:30:26;;;;;;;0.20;0.20;;;;;;;;;;5016076;28;20033;-93
2022/05/07 09:32:52;;;;;;;;;;;;;;;;;;5016523;28;20439;-92
2022/05/07 09:38:03;;;;;;;0.10;0.10;;;;;;;;;;5018881;28;20584;-93
2022/05/07 09:40:29;;;;;;;0.10;0.10;;;;;;;;;;5016997;28;20113;-93
2022/05/07 09:42:58;;;;;;;0.20;0.20;;;;;;;;;;5023126;28;20113;-92
2022/05/07 09:45:30;;;;;;;0.10;0.10;;;;;;;;;;5040368;28;20040;-92
2022/05/07 09:47:56;;;;;;;0.20;0.20;;;;;;;;;;5039445;28;20048;-92
2022/05/07 09:50:25;;;;;;;0.10;0.10;;;;;;;;;;5017627;28;20397;-94
2022/05/07 09:58:21;;;;;;;0.10;0.10;;;;;;;;;;5047927;28;20041;-92
2022/05/07 10:00:58;;;;;;;0.50;0.50;;;;;;;;;;5014894;28;20041;-93
2022/05/07 10:03:26;;;;;;;0.20;0.20;;;;;;;;;;5017666;28;20107;-93
2022/05/07 10:05:52;;;;;;;0.30;0.30;;;;;;;;;;5018687;28;20049;-94
2022/05/07 10:08:25;;;;;;;0.10;0.10;;;;;;;;;;5018807;28;20041;-94
2022/05/07 10:10:52;;;;;;;0.20;0.20;;;;;;;;;;5019110;28;20477;-92
2022/05/07 10:13:18;;;;;;;0.45;0.45;;;;;;;;;;5018809;28;20554;-93
2022/05/07 10:15:45;;;;;;;0.20;0.20;;;;;;;;;;5019005;28;20057;-94
2022/05/07 10:18:14;;;;;;;0.10;0.10;;;;;;;;;;5018749;28;20524;-93
2022/05/07 10:20:44;;;;;;;0.50;0.50;;;;;;;;;;5019617;28;20057;-93
2022/05/07 10:23:11;;;;;;;0.20;0.20;;;;;;;;;;5018419;28;20052;-94
2022/05/07 10:25:37;;;;;;;0.20;0.20;;;;;;;;;;5018302;28;20033;-93
2022/05/07 10:28:10;;;;;;;0.20;0.20;;;;;;;;;;5018671;28;20071;-93
2022/05/07 10:30:54;;;;;;;0.52;0.52;;;;;;;;;;5018286;28;20038;-94
2022/05/07 10:33:21;;;;;;;0.52;0.52;;;;;;;;;;5018373;28;20440;-94
2022/05/07 10:35:58;;;;;;;0.20;0.20;;;;;;;;;;5018157;28;20038;-95
2022/05/07 10:38:28;;;;;;;0.10;0.10;;;;;;;;;;5020217;28;20045;-93
2022/05/07 10:40:54;;;;;;;0.10;0.10;;;;;;;;;;5018232;28;20049;-93
2022/05/07 10:43:39;;;;;;;0.10;0.10;;;;;;;;;;5018623;28;20042;-93
2022/05/07 10:46:08;;;;;;;0.10;0.10;;;;;;;;;;5018141;28;20503;-93
2022/05/07 10:48:47;;;;;;;0.13;0.13;;;;;;;;;;5017634;28;20120;-93
2022/05/07 10:51:40;;;;;;;0.20;0.20;;;;;;;;;;5017873;28;20037;-93
2022/05/07 10:54:05;;;;;;;;;;;;;;;;;;5032131;28;20511;-95
2022/05/07 10:56:34;;;;;;;0.22;0.22;;;;;;;;;;5033800;28;19924;-94
2022/05/07 10:59:01;;;;;;;0.10;0.10;;;;;;;;;;5017405;28;20042;-93
2022/05/07 11:01:27;;;;;;;0.10;0.10;;;;;;;;;;5018998;28;20037;-93
2022/05/07 11:04:05;;;;;;;0.10;0.10;;;;;;;;;;5017712;28;20485;-94
2022/05/07 11:06:43;;;;;;;0.10;0.10;;;;;;;;;;5017522;28;20041;-94
2022/05/07 11:09:19;;;;;;;0.20;0.20;;;;;;;;;;5017437;28;20105;-93
2022/05/07 11:11:46;;;;;;;0.20;0.20;;;;;;;;;;5017407;28;20037;-94
2022/05/07 11:14:32;;;;;;;0.17;0.17;;;;;;;;;;5017127;28;20076;-93
2022/05/07 11:16:59;;;;;;;0.30;0.30;;;;;;;;;;5033285;28;20064;-93
2022/05/07 11:19:33;;;;;;;0.10;0.10;;;;;;;;;;5017384;28;20374;-93
2022/05/07 11:22:02;;;;;;;0.25;0.25;;;;;;;;;;5017310;28;20476;-93
2022/05/07 11:24:28;;;;;;;0.30;0.30;;;;;;;;;;5017415;28;20523;-93
2022/05/07 11:26:55;;;;;;;0.20;0.20;;;;;;;;;;5017264;28;20088;-93
2022/05/07 11:29:22;;;;;;;0.73;0.30;;;;;;;;;;5033533;28;20073;-94
2022/05/07 11:32:14;;;;;;;0.25;0.25;;;;;;;;;;5031836;28;20030;-93
2022/05/07 11:34:40;;;;;;;;;;;;;;;;;;5025721;28;20406;-91
2022/05/07 11:37:24;;;;;;;0.20;0.20;;;;;;;;;;5016980;28;19917;-92
2022/05/07 11:39:57;;;;;;;0.20;0.20;;;;;;;;;;5000342;28;20042;-93
2022/05/07 11:42:26;;;;;;;0.43;0.43;;;;;;;;;;5016671;28;20045;-94
2022/05/07 11:47:37;;;;;;;0.20;0.20;;;;;;;;;;5019271;28;20045;-92
2022/05/07 11:50:08;;;;;;;0.20;0.20;;;;;;;;;;5016744;28;20098;-93
2022/05/07 11:52:35;;;;;;;0.10;0.10;;;;;;;;;;5017597;28;20052;-93
2022/05/07 11:55:05;;;;;;;0.20;0.20;;;;;;;;;;5017020;28;20103;-93
2022/05/07 11:57:34;;;;;;;0.10;0.10;;;;;;;;;;5016848;28;20046;-92
2022/05/07 12:00:13;;;;;;;0.20;0.20;;;;;;;;;;5016752;28;20045;-94
2022/05/07 12:02:48;;;;;;;0.20;0.20;;;;;;;;;;5016395;28;20053;-93
2022/05/07 12:05:15;;;;;;;0.10;0.10;;;;;;;;;;5016559;28;20041;-94
2022/05/07 12:07:41;;;;;;;0.25;0.25;;;;;;;;;;5020626;28;20045;-94
2022/05/07 12:10:07;;;;;;;0.10;0.10;;;;;;;;;;5016550;28;20069;-94
2022/05/07 12:12:33;;;;;;;0.20;0.20;;;;;;;;;;5016844;28;20556;-94
2022/05/07 12:14:59;;;;;;;0.22;0.22;;;;;;;;;;5016750;28;20060;-94
2022/05/07 12:20:10;;;;;;;0.20;0.20;;;;;;;;;;5019134;28;20501;-92
2022/05/07 12:30:51;;;;;;;0.20;0.20;;;;;;;;;;5018683;28;20049;-95
2022/05/07 12:33:17;;;;;;;0.20;0.20;;;;;;;;;;5016533;28;20068;-93
2022/05/07 12:35:46;;;;;;;0.20;0.20;;;;;;;;;;5016517;28;20041;-94
2022/05/07 12:38:12;;;;;;;0.73;0.73;;;;;;;;;;5016134;28;20507;-93
2022/05/07 12:40:39;;;;;;;0.45;0.45;;;;;;;;;;5015791;28;20396;-92
2022/05/07 12:43:05;;;;;;;0.70;0.50;;;;;;;;;;5015755;28;20404;-92
2022/05/07 12:45:35;;;;;;;0.43;0.43;;;;;;;;;;5015558;28;20041;-92
2022/05/07 12:48:01;;;;;;;0.20;0.20;;;;;;;;;;5016080;28;20041;-92
2022/05/07 12:50:27;;;;;;;0.20;0.20;;;;;;;;;;5015673;28;20128;-93
2022/05/07 12:52:53;;;;;;;0.50;0.50;;;;;;;;;;5016054;28;20073;-93
2022/05/07 12:55:19;;;;;;;0.20;0.20;;;;;;;;;;5015412;28;20052;-92
2022/05/07 12:57:44;;;;;;;3.00;1.42;;;;;;;;;;5015401;28;20099;-92
2022/05/07 13:00:11;;;;;;;0.10;0.10;;;;;;;;;;5015424;28;20319;-92
2022/05/07 13:02:37;;;;;;;0.15;0.15;;;;;;;;;;5015736;28;20049;-91
2022/05/07 13:05:03;;;;;;;0.38;0.38;;;;;;;;;;5015580;28;20044;-92
2022/05/07 13:07:30;;;;;;;0.10;0.10;;;;;;;;;;5015440;28;20049;-92
2022/05/07 13:09:57;;;;;;;0.28;0.28;;;;;;;;;;5031822;28;20041;-93
2022/05/07 13:12:25;;;;;;;0.10;0.10;;;;;;;;;;5015321;28;20045;-92
2022/05/07 13:14:51;;;;;;;0.17;0.17;;;;;;;;;;5015295;28;20422;-92
2022/05/07 13:17:17;;;;;;;0.10;0.10;;;;;;;;;;5015279;28;20053;-92
2022/05/07 13:19:43;;;;;;;0.10;0.10;;;;;;;;;;5015501;28;20122;-90
2022/05/07 13:22:09;;;;;;;0.50;0.50;;;;;;;;;;5015293;28;20492;-91
2022/05/07 13:24:35;;;;;;;0.20;0.20;;;;;;;;;;5015191;28;20038;-92
2022/05/07 13:27:01;;;;;;;0.20;0.20;;;;;;;;;;5014941;28;20099;-90
2022/05/07 13:29:28;;;;;;;1.05;0.30;;;;;;;;;;5014822;28;20033;-93
2022/05/07 13:31:57;;;;;;;0.20;0.20;;;;;;;;;;5015210;28;20120;-92
2022/05/07 13:34:23;;;;;;;0.20;0.20;;;;;;;;;;5015066;28;20041;-93
2022/05/07 13:36:49;;;;;;;0.10;0.10;;;;;;;;;;5016514;28;20041;-92
2022/05/07 13:39:15;;;;;;;0.30;0.30;;;;;;;;;;5018905;28;20065;-90
2022/05/07 13:41:41;;;;;;;0.20;0.20;;;;;;;;;;5018950;28;20052;-91
2022/05/07 13:44:11;;;;;;;0.35;0.35;;;;;;;;;;5018894;28;20125;-93
2022/05/07 13:46:40;;;;;;;0.35;0.35;;;;;;;;;;5019694;28;20373;-92
2022/05/07 13:49:06;;;;;;;0.20;0.20;;;;;;;;;;5019545;28;20507;-92
2022/05/07 13:51:32;;;;;;;0.10;0.10;;;;;;;;;;5020527;28;20505;-91
2022/05/07 13:53:58;;;;;;;0.20;0.20;;;;;;;;;;5022651;28;20045;-90
2022/05/07 13:56:26;;;;;;;0.32;0.32;;;;;;;;;;5029723;28;20041;-89
2022/05/07 13:58:52;;;;;;;0.20;0.20;;;;;;;;;;5028208;28;20037;-91
2022/05/07 14:01:18;;;;;;;0.22;0.22;;;;;;;;;;5021717;28;20488;-92
2022/05/07 14:03:44;;;;;;;0.10;0.10;;;;;;;;;;5021865;28;20053;-90
2022/05/07 14:06:14;;;;;;;0.20;0.20;;;;;;;;;;5038149;28;20040;-92
2022/05/07 14:08:40;;;;;;;0.80;0.40;;;;;;;;;;5035842;28;20037;-91
2022/05/07 14:11:08;;;;;;;0.20;0.20;;;;;;;;;;5018909;28;20044;-93
2022/05/07 14:13:34;;;;;;;0.10;0.10;;;;;;;;;;5034301;28;20041;-93
2022/05/07 14:16:00;;;;;;;0.10;0.10;;;;;;;;;;5018739;28;20128;-93
2022/05/07 14:18:26;;;;;;;0.45;0.45;;;;;;;;;;5018143;28;20124;-93
2022/05/07 14:20:53;;;;;;;0.20;0.20;;;;;;;;;;5018636;28;20042;-93
2022/05/07 14:23:21;;;;;;;0.20;0.20;;;;;;;;;;5018665;28;20041;-94
2022/05/07 14:25:47;;;;;;;0.40;0.40;;;;;;;;;;5018355;28;20493;-95
2022/05/07 14:28:14;;;;;;;0.10;0.10;;;;;;;;;;5018251;28;20053;-94
2022/05/07 14:30:41;;;;;;;0.10;0.10;;;;;;;;;;5018629;28;20095;-91
2022/05/07 14:33:08;;;;;;;0.10;0.10;;;;;;;;;;5017960;28;20040;-94
2022/05/07 14:35:34;;;;;;;0.30;0.30;;;;;;;;;;5018476;28;20041;-95
2022/05/07 14:38:00;;;;;;;0.15;0.15;;;;;;;;;;5018135;28;20095;-94
2022/05/07 14:40:31;;;;;;;0.10;0.10;;;;;;;;;;5018181;28;20045;-92
2022/05/07 14:42:57;;;;;;;0.40;0.40;;;;;;;;;;5018639;28;20048;-92
2022/05/07 14:45:23;;;;;;;0.20;0.20;;;;;;;;;;5018019;28;20041;-93
2022/05/07 14:47:49;;;;;;;0.10;0.10;;;;;;;;;;5017179;28;20152;-92
2022/05/07 14:50:15;;;;;;;0.10;0.10;;;;;;;;;;5017871;28;20060;-93
2022/05/07 14:52:41;;;;;;;0.10;0.10;;;;;;;;;;5018110;28;20425;-91
2022/05/07 14:55:08;;;;;;;0.28;0.28;;;;;;;;;;5017591;28;20042;-91
2022/05/07 14:57:34;;;;;;;0.20;0.20;;;;;;;;;;5017736;28;20508;-92
2022/05/07 15:00:00;;;;;;;0.10;0.10;;;;;;;;;;5017461;28;20053;-92
2022/05/07 15:02:26;;;;;;;0.15;0.15;;;;;;;;;;5017434;28;20041;-94
2022/05/07 15:04:55;;;;;;;0.13;0.13;;;;;;;;;;5034048;28;20449;-92
2022/05/07 15:07:21;;;;;;;0.10;0.10;;;;;;;;;;5017723;28;20084;-93
2022/05/07 15:12:32;;;;;;;0.13;0.13;;;;;;;;;;5019789;28;20042;-93
2022/05/07 15:14:58;;;;;;;0.10;0.10;;;;;;;;;;5017631;28;20046;-94
2022/05/07 15:17:24;;;;;;;0.10;0.10;;;;;;;;;;5017735;28;20389;-94
2022/05/07 15:19:50;;;;;;;0.20;0.20;;;;;;;;;;5017028;28;20056;-94
2022/05/07 15:22:16;;;;;;;0.30;0.30;;;;;;;;;;5016790;28;20065;-94